Terminal Aerodrome Forecast
Issued by NWS

Home | Current Version | Previous Version | Text Only | Print | Product List | Glossary On
Versions: 1 2 3 4 5 6 7 8 9 10 11 12 13 14
000
FTUS43 KGLD 152300
TAFMCK
TAF
KMCK 152320Z 1600/1624 21016KT P6SM BKN200
     FM160200 19013KT P6SM BKN150
     FM161000 30015G25KT P6SM BKN150
     FM161500 32022G33KT P6SM FEW250
     FM162300 35017G27KT P6SM BKN070=

USA.gov is the U.S. government's official web portal to all federal, state and local government web resources and services.